METAR Data
IDs: Format: Raw Decoded Include TAF

Data at: 1853 UTC 16 Oct 2021

KMWL 161753Z AUTO 01008KT 10SM CLR 21/01 A3040 RMK AO2 SLP288 T02060011 10206 20061 58002
KMWL 161653Z AUTO 34008KT 10SM CLR 19/01 A3041 RMK AO2 SLP292 T01940006
KMWL 161553Z AUTO 01004KT 10SM CLR 17/06 A3042 RMK AO2 SLP295 T01720061
KMWL 161453Z AUTO 31003KT 10SM CLR 13/09 A3041 RMK AO2 SLP293 T01330089 53020
KMWL 161353Z AUTO 28004KT 10SM CLR 09/07 A3039 RMK AO2 SLP287 T00940072
KMWL 161253Z AUTO 27004KT 10SM CLR 06/05 A3036 RMK AO2 SLP277 T00610050
KMWL 161153Z AUTO 27003KT 10SM CLR 07/06 A3035 RMK AO2 SLP272 T00720056 10111 20067 53009
KMWL 161053Z AUTO 27004KT 10SM CLR 08/06 A3033 RMK AO2 SLP264 T00780056
KMWL 160953Z AUTO 27003KT 10SM CLR 08/06 A3032 RMK AO2 SLP262 T00830056
KMWL 160853Z AUTO 00000KT 10SM CLR 09/06 A3032 RMK AO2 SLP260 T00890056 50008
KMWL 160753Z AUTO 00000KT 10SM CLR 11/05 A3032 RMK AO2 SLP261 T01060050
KMWL 160653Z AUTO 36005KT 10SM CLR 09/06 A3031 RMK AO2 SLP258 T00940056
KMWL 160553Z AUTO 33004KT 10SM CLR 11/06 A3030 RMK AO2 SLP253 T01110056 10189 20106 402330106 51018
KMWL 160453Z AUTO 28004KT 4SM HZ CLR 12/06 A3028 RMK AO2 SLP249 T01170061
KMWL 160353Z AUTO 36003KT 10SM CLR 13/07 A3026 RMK AO2 SLP242 T01280067
KMWL 160253Z AUTO 34003KT 10SM CLR 13/06 A3024 RMK AO2 SLP235 T01330061 51028
KMWL 160153Z AUTO 36007KT 10SM CLR 14/06 A3021 RMK AO2 SLP225 T01440061
KMWL 160053Z AUTO 35006KT 10SM CLR 16/07 A3019 RMK AO2 SLP214 T01610067
KMWL 152353Z AUTO 36013KT 10SM CLR 19/06 A3016 RMK AO2 SLP202 T01890061 10233 20189 53019
KMWL 152253Z AUTO 35016KT 10SM CLR 21/06 A3013 RMK AO2 PK WND 34027/2213 SLP194 T02110061
KMWL 152153Z AUTO 35015G24KT 10SM CLR 22/08 A3011 RMK AO2 PK WND 34027/2105 SLP186 T02220078
KMWL 152053Z AUTO 35018G24KT 10SM CLR 23/09 A3010 RMK AO2 PK WND 35027/2042 SLP182 T02330089 53006
KMWL 151953Z AUTO 35018KT 10SM CLR 22/09 A3009 RMK AO2 PK WND 32029/1858 SLP178 T02220094
KMWL 151853Z AUTO 33020G27KT 10SM FEW038 22/11 A3009 RMK AO2 PK WND 34027/1835 SLP178 T02220111
KMWL 151753Z AUTO 33016G24KT 10SM FEW025 21/12 A3008 RMK AO2 PK WND 33026/1718 SLP177 T02110117 10211 20156 51021
KMWL 151717Z AUTO 31019G26KT 10SM SCT020 20/13 A3008 RMK AO2 PK WND 31026/1717 T02000128
KMWL 151653Z AUTO 32017KT 10SM OVC015 18/14 A3008 RMK AO2 SLP175 T01830139
KMWL 151644Z AUTO 32016KT 10SM OVC015 18/14 A3007 RMK AO2 T01780139
KMWL 151613Z AUTO 32011G20KT 10SM OVC010 17/15 A3006 RMK AO2 CIG 009V013 T01720150
KMWL 151553Z AUTO 31014KT 10SM OVC008 17/15 A3005 RMK AO2 SLP165 T01720150
KMWL 151453Z AUTO 30015KT 3SM BR OVC005 16/15 A3002 RMK AO2 SLP156 T01560150 53045
KMWL 151353Z AUTO 31012G19KT 8SM OVC006 17/15 A2997 RMK AO2 CIG 005V008 SLP139 T01670150 $
KMWL 151253Z AUTO 29012KT 10SM BKN006 18/17 A2991 RMK AO2 SLP120 T01780167 $
KMWL 151237Z AUTO 27009KT 8SM FEW001 BKN008 BKN015 19/18 A2990 RMK AO2 CIG 005V013 T01890183 $
KMWL 151221Z AUTO 23004KT 4SM BR SCT001 BKN015 19/18 A2989 RMK AO2 T01890183 $
KMWL 151211Z AUTO 00000KT 3SM BR BKN002 OVC015 19/18 A2989 RMK AO2 T01890183 $
KMWL 151202Z AUTO 00000KT 4SM BR FEW002 BKN013 OVC018 19/19 A2989 RMK AO2 T01940189 $
KMWL 151153Z AUTO 23004KT 5SM BR BKN018 19/19 A2988 RMK AO2 SLP107 T01940189 10206 20183 53018 $
KMWL 151140Z AUTO 21004KT 5SM BR SCT004 BKN018 19/18 A2988 RMK AO2 T01890183 $
KMWL 151106Z AUTO 00000KT 3SM BR BKN004 19/19 A2986 RMK AO2 T01940189 $
KMWL 151058Z AUTO 29003KT 2SM BR BKN004 BKN009 19/18 A2986 RMK AO2 T01890183 $
KMWL 151053Z AUTO 29005KT 1 1/4SM BR SCT004 BKN009 19/18 A2986 RMK AO2 VIS 3/4V3 SLP098 T01890183 $
KMWL 151046Z AUTO 29003KT 1 3/4SM BR FEW004 18/18 A2985 RMK AO2 T01830178 $
KMWL 150953Z AUTO 14008KT 6SM BR CLR 19/19 A2983 RMK AO2 SLP088 T01940189
KMWL 150853Z AUTO 14006KT 5SM BR CLR 19/19 A2983 RMK AO2 SLP087 T01940189 50003
KMWL 150753Z AUTO 15004KT 6SM BR CLR 20/19 A2983 RMK AO2 SLP089 T02000194